This is the latest recevied weather packets stored in our database for station/object KG7DQI-13. If no packets are shown the sender has not sent any weather packets the latest 10 day(s).
| Time | Temp. | Humidity | Pressure | Rain* | Wind** | Luminosity | Snow |
|---|---|---|---|---|---|---|---|
| 1777743526 | 18.33° C | 53% | 913.8 hPa | 0 mm | - | 496 W/m² | - |
| 1777742605 | 18.33° C | 53% | 913.8 hPa | 0 mm | - | 264 W/m² | - |
| 1777741664 | 17.78° C | 54% | 913.8 hPa | 0 mm | - | 316 W/m² | - |
| 1777740738 | 17.22° C | 58% | 914 hPa | 0 mm | - | 438 W/m² | - |
| 1777739875 | 16.67° C | 60% | 913.9 hPa | 0 mm | - | 288 W/m² | - |
| 1777738966 | 16.11° C | 62% | 913.9 hPa | 0 mm | - | 431 W/m² | - |
| 1777738062 | 15° C | 65% | 914 hPa | 0 mm | - | 376 W/m² | - |
| 1777737176 | 14.44° C | 67% | 913.8 hPa | 0 mm | - | 132 W/m² | - |
| 1777736270 | 13.89° C | 69% | 913.7 hPa | 0 mm | - | 171 W/m² | - |
| 1777735338 | 13.33° C | 72% | 913.6 hPa | 0 mm | - | 174 W/m² | - |
| 1777734443 | 13.33° C | 74% | 913.6 hPa | 0 mm | - | 128 W/m² | - |
| 1777733544 | 12.22° C | 80% | 913.5 hPa | 0 mm | - | 123 W/m² | - |
| 1777732604 | 11.11° C | 82% | 913.5 hPa | 0 mm | - | 116 W/m² | - |
| 1777731740 | 10.56° C | 85% | 913.3 hPa | 0 mm | - | 93 W/m² | - |
| 1777730865 | 10° C | 86% | 913.2 hPa | 0 mm | - | 88 W/m² | - |
| 1777729994 | 9.44° C | 85% | 913.3 hPa | 0 mm | - | 53 W/m² | - |
| 1777729081 | 9.44° C | 86% | 913.3 hPa | 0 mm | - | 21 W/m² | - |
| 1777728137 | 9.44° C | 85% | 913.1 hPa | 0 mm | - | 7 W/m² | - |
| 1777727252 | 8.33° C | 86% | 913.3 hPa | 0 mm | - | 0 W/m² | - |
| 1777726371 | 8.33° C | 85% | 913 hPa | 0 mm | - | 0 W/m² | - |
| 1777725480 | 8.33° C | 85% | 913.2 hPa | 0 mm | - | 0 W/m² | - |
| 1777724616 | 7.78° C | 87% | 913 hPa | 0 mm | - | 0 W/m² | - |
| 1777723706 | 7.78° C | 83% | 912.9 hPa | 0 mm | - | 0 W/m² | - |
| 1777722785 | 7.78° C | 83% | 913 hPa | 0 mm | - | 0 W/m² | - |
| 1777721866 | 7.22° C | 83% | 912.9 hPa | 0 mm | - | 0 W/m² | - |
* Rain latest hour (hover to see other rain measurements)
** Current wind speed in m/s (hover to see current wind gust speed)